sensor_id;sensor_type;location;lat;lon;timestamp;temperature;humidity
20885;DHT22;10602;48.000;9.654;2023-09-12T02:18:30;15.30;99.90
20885;DHT22;10602;48.000;9.654;2023-09-12T02:21:17;15.20;99.90
20885;DHT22;10602;48.000;9.654;2023-09-12T02:23:48;15.20;99.90
20885;DHT22;10602;48.000;9.654;2023-09-12T02:29:10;15.10;99.90
20885;DHT22;10602;48.000;9.654;2023-09-12T02:31:56;15.00;99.90
20885;DHT22;10602;48.000;9.654;2023-09-12T02:34:57;15.00;99.90
20885;DHT22;10602;48.000;9.654;2023-09-12T02:37:54;15.00;99.90
20885;DHT22;10602;48.000;9.654;2023-09-12T02:40:32;15.00;99.90
20885;DHT22;10602;48.000;9.654;2023-09-12T02:43:08;15.00;99.90
20885;DHT22;10602;48.000;9.654;2023-09-12T02:45:37;14.90;99.90
20885;DHT22;10602;48.000;9.654;2023-09-12T02:48:10;14.90;99.90
20885;DHT22;10602;48.000;9.654;2023-09-12T02:50:38;14.90;99.90
20885;DHT22;10602;48.000;9.654;2023-09-12T02:53:08;14.80;99.90
20885;DHT22;10602;48.000;9.654;2023-09-12T02:55:45;14.80;99.90
20885;DHT22;10602;48.000;9.654;2023-09-12T02:58:17;14.80;99.90
20885;DHT22;10602;48.000;9.654;2023-09-12T03:00:47;14.80;99.90
20885;DHT22;10602;48.000;9.654;2023-09-12T03:03:21;14.80;99.90
20885;DHT22;10602;48.000;9.654;2023-09-12T03:06:01;14.80;99.90
20885;DHT22;10602;48.000;9.654;2023-09-12T03:08:28;14.80;99.90
20885;DHT22;10602;48.000;9.654;2023-09-12T03:11:01;14.90;99.90
20885;DHT22;10602;48.000;9.654;2023-09-12T03:13:42;14.90;99.90
20885;DHT22;10602;48.000;9.654;2023-09-12T03:16:13;14.90;99.90
20885;DHT22;10602;48.000;9.654;2023-09-12T03:18:52;14.90;99.90
20885;DHT22;10602;48.000;9.654;2023-09-12T03:21:24;15.00;99.90
20885;DHT22;10602;48.000;9.654;2023-09-12T03:23:52;15.00;99.90
20885;DHT22;10602;48.000;9.654;2023-09-12T03:26:23;15.00;99.90
20885;DHT22;10602;48.000;9.654;2023-09-12T03:28:52;14.90;99.90
20885;DHT22;10602;48.000;9.654;2023-09-12T03:31:22;14.90;99.90
20885;DHT22;10602;48.000;9.654;2023-09-12T03:33:56;14.90;99.90
20885;DHT22;10602;48.000;9.654;2023-09-12T03:49:40;14.70;99.90
20885;DHT22;10602;48.000;9.654;2023-09-12T04:01:45;14.50;99.90
20885;DHT22;10602;48.000;9.654;2023-09-12T04:04:34;14.50;99.90
20885;DHT22;10602;48.000;9.654;2023-09-12T04:16:21;14.50;99.90
20885;DHT22;10602;48.000;9.654;2023-09-12T04:18:58;14.40;99.90
20885;DHT22;10602;48.000;9.654;2023-09-12T04:21:41;14.40;99.90
20885;DHT22;10602;48.000;9.654;2023-09-12T04:27:23;14.30;99.90
20885;DHT22;10602;48.000;9.654;2023-09-12T04:30:00;14.30;99.90
20885;DHT22;10602;48.000;9.654;2023-09-12T04:41:06;14.10;99.90
20885;DHT22;10602;48.000;9.654;2023-09-12T04:50:07;14.00;99.90
20885;DHT22;10602;48.000;9.654;2023-09-12T04:55:58;13.90;99.90
20885;DHT22;10602;48.000;9.654;2023-09-12T04:58:22;13.90;99.90
20885;DHT22;10602;48.000;9.654;2023-09-12T05:00:51;13.90;99.90
20885;DHT22;10602;48.000;9.654;2023-09-12T05:03:20;14.00;99.90
20885;DHT22;10602;48.000;9.654;2023-09-12T05:05:52;14.10;99.90
20885;DHT22;10602;48.000;9.654;2023-09-12T05:08:26;14.10;99.90
20885;DHT22;10602;48.000;9.654;2023-09-12T05:11:00;14.10;99.90
20885;DHT22;10602;48.000;9.654;2023-09-12T05:13:31;14.10;99.90
20885;DHT22;10602;48.000;9.654;2023-09-12T05:16:03;14.10;99.90
20885;DHT22;10602;48.000;9.654;2023-09-12T05:18:33;14.20;99.90
20885;DHT22;10602;48.000;9.654;2023-09-12T05:21:07;14.20;99.90
20885;DHT22;10602;48.000;9.654;2023-09-12T05:23:35;14.30;99.90
20885;DHT22;10602;48.000;9.654;2023-09-12T05:26:05;14.30;99.90
20885;DHT22;10602;48.000;9.654;2023-09-12T05:28:35;14.40;99.90
20885;DHT22;10602;48.000;9.654;2023-09-12T05:31:06;14.40;99.90
20885;DHT22;10602;48.000;9.654;2023-09-12T05:33:46;14.40;99.90
20885;DHT22;10602;48.000;9.654;2023-09-12T06:10:39;16.10;99.90
20885;DHT22;10602;48.000;9.654;2023-09-12T06:20:09;16.70;99.90
20885;DHT22;10602;48.000;9.654;2023-09-12T06:23:04;16.90;99.90
20885;DHT22;10602;48.000;9.654;2023-09-12T06:28:41;17.40;99.90
20885;DHT22;10602;48.000;9.654;2023-09-12T06:31:15;17.60;99.90
20885;DHT22;10602;48.000;9.654;2023-09-12T06:33:55;18.10;73.70
20885;DHT22;10602;48.000;9.654;2023-09-12T06:36:55;18.20;52.20
20885;DHT22;10602;48.000;9.654;2023-09-12T06:39:35;18.40;99.90
20885;DHT22;10602;48.000;9.654;2023-09-12T06:42:19;18.70;99.90
20885;DHT22;10602;48.000;9.654;2023-09-12T06:44:52;18.90;99.90
20885;DHT22;10602;48.000;9.654;2023-09-12T06:50:18;19.30;1.60
20885;DHT22;10602;48.000;9.654;2023-09-12T06:53:11;19.30;77.40
20885;DHT22;10602;48.000;9.654;2023-09-12T07:10:27;21.00;99.90
20885;DHT22;10602;48.000;9.654;2023-09-12T07:13:02;21.40;99.90
20885;DHT22;10602;48.000;9.654;2023-09-12T07:18:39;21.60;99.90
20885;DHT22;10602;48.000;9.654;2023-09-12T07:21:21;21.80;99.90
20885;DHT22;10602;48.000;9.654;2023-09-12T07:23:55;21.80;1.00
20885;DHT22;10602;48.000;9.654;2023-09-12T07:26:39;21.80;99.90
20885;DHT22;10602;48.000;9.654;2023-09-12T07:29:17;21.80;1.00
20885;DHT22;10602;48.000;9.654;2023-09-12T07:31:53;22.00;99.90
20885;DHT22;10602;48.000;9.654;2023-09-12T07:34:45;22.50;99.90
20885;DHT22;10602;48.000;9.654;2023-09-12T07:37:32;23.00;99.90
20885;DHT22;10602;48.000;9.654;2023-09-12T07:40:16;23.30;1.00
20885;DHT22;10602;48.000;9.654;2023-09-12T07:42:51;23.60;1.00
20885;DHT22;10602;48.000;9.654;2023-09-12T15:43:55;25.60;1.00
20885;DHT22;10602;48.000;9.654;2023-09-12T15:46:23;25.50;1.00
20885;DHT22;10602;48.000;9.654;2023-09-12T15:48:50;25.30;1.00
20885;DHT22;10602;48.000;9.654;2023-09-12T15:51:22;25.10;1.00
20885;DHT22;10602;48.000;9.654;2023-09-12T15:53:53;24.90;1.00
20885;DHT22;10602;48.000;9.654;2023-09-12T15:56:38;24.80;1.00
20885;DHT22;10602;48.000;9.654;2023-09-12T15:59:25;24.60;1.00
20885;DHT22;10602;48.000;9.654;2023-09-12T16:04:44;24.30;1.00
20885;DHT22;10602;48.000;9.654;2023-09-12T16:07:13;24.10;1.00
20885;DHT22;10602;48.000;9.654;2023-09-12T16:09:48;23.80;1.00
20885;DHT22;10602;48.000;9.654;2023-09-12T16:12:29;23.70;1.00
20885;DHT22;10602;48.000;9.654;2023-09-12T16:15:25;23.60;1.00
20885;DHT22;10602;48.000;9.654;2023-09-12T16:20:55;23.50;1.00
20885;DHT22;10602;48.000;9.654;2023-09-12T16:26:30;23.50;1.00
20885;DHT22;10602;48.000;9.654;2023-09-12T16:29:04;23.50;1.00
20885;DHT22;10602;48.000;9.654;2023-09-12T16:31:41;23.50;1.00
20885;DHT22;10602;48.000;9.654;2023-09-12T16:34:17;23.50;1.00
20885;DHT22;10602;48.000;9.654;2023-09-12T16:36:52;23.50;1.00
20885;DHT22;10602;48.000;9.654;2023-09-12T16:39:35;23.50;1.00
20885;DHT22;10602;48.000;9.654;2023-09-12T16:42:09;23.60;1.00
20885;DHT22;10602;48.000;9.654;2023-09-12T16:44:39;23.50;1.00
20885;DHT22;10602;48.000;9.654;2023-09-12T16:47:07;23.50;1.00
20885;DHT22;10602;48.000;9.654;2023-09-12T16:49:35;23.50;1.00
20885;DHT22;10602;48.000;9.654;2023-09-12T16:52:14;23.50;1.00
20885;DHT22;10602;48.000;9.654;2023-09-12T16:54:55;23.50;1.00
20885;DHT22;10602;48.000;9.654;2023-09-12T16:57:31;23.40;1.00
20885;DHT22;10602;48.000;9.654;2023-09-12T17:00:04;23.40;1.00
20885;DHT22;10602;48.000;9.654;2023-09-12T17:02:41;23.30;1.00
20885;DHT22;10602;48.000;9.654;2023-09-12T17:05:20;23.30;1.00
20885;DHT22;10602;48.000;9.654;2023-09-12T17:07:50;23.20;1.00
20885;DHT22;10602;48.000;9.654;2023-09-12T17:10:47;23.10;1.00
20885;DHT22;10602;48.000;9.654;2023-09-12T17:15:55;23.10;1.00
20885;DHT22;10602;48.000;9.654;2023-09-12T17:18:39;23.00;1.00
20885;DHT22;10602;48.000;9.654;2023-09-12T17:21:13;23.00;1.00
20885;DHT22;10602;48.000;9.654;2023-09-12T17:23:47;23.00;1.00
20885;DHT22;10602;48.000;9.654;2023-09-12T17:26:16;23.00;1.00
20885;DHT22;10602;48.000;9.654;2023-09-12T17:28:57;22.90;1.00
20885;DHT22;10602;48.000;9.654;2023-09-12T17:31:27;22.90;1.00
20885;DHT22;10602;48.000;9.654;2023-09-12T17:34:00;22.80;1.00
20885;DHT22;10602;48.000;9.654;2023-09-12T17:36:32;22.70;1.00
20885;DHT22;10602;48.000;9.654;2023-09-12T17:39:01;22.70;1.00
20885;DHT22;10602;48.000;9.654;2023-09-12T17:41:35;22.50;1.00
20885;DHT22;10602;48.000;9.654;2023-09-12T17:44:03;22.30;99.90
20885;DHT22;10602;48.000;9.654;2023-09-12T17:46:36;22.00;1.00
20885;DHT22;10602;48.000;9.654;2023-09-12T17:49:12;21.80;1.00
20885;DHT22;10602;48.000;9.654;2023-09-12T17:51:52;21.70;1.00
20885;DHT22;10602;48.000;9.654;2023-09-12T17:54:35;21.60;1.00
20885;DHT22;10602;48.000;9.654;2023-09-12T17:57:12;21.50;99.90
20885;DHT22;10602;48.000;9.654;2023-09-12T17:59:45;21.20;1.00
20885;DHT22;10602;48.000;9.654;2023-09-12T18:02:14;21.00;1.00
20885;DHT22;10602;48.000;9.654;2023-09-12T18:04:51;20.70;51.70
20885;DHT22;10602;48.000;9.654;2023-09-12T18:07:28;20.60;99.90
20885;DHT22;10602;48.000;9.654;2023-09-12T18:10:06;20.50;1.00
20885;DHT22;10602;48.000;9.654;2023-09-12T18:12:41;20.50;26.20
20885;DHT22;10602;48.000;9.654;2023-09-12T18:15:09;20.50;37.20
20885;DHT22;10602;48.000;9.654;2023-09-12T18:17:42;20.60;99.90
20885;DHT22;10602;48.000;9.654;2023-09-12T18:20:14;20.60;1.00
20885;DHT22;10602;48.000;9.654;2023-09-12T18:22:52;20.70;1.00
20885;DHT22;10602;48.000;9.654;2023-09-12T18:25:24;20.70;99.90
20885;DHT22;10602;48.000;9.654;2023-09-12T18:28:17;20.80;1.00
20885;DHT22;10602;48.000;9.654;2023-09-12T18:39:20;20.60;1.00
20885;DHT22;10602;48.000;9.654;2023-09-12T18:51:12;20.30;25.30
20885;DHT22;10602;48.000;9.654;2023-09-12T19:02:10;20.20;99.90
20885;DHT22;10602;48.000;9.654;2023-09-12T19:04:35;20.20;99.90
20885;DHT22;10602;48.000;9.654;2023-09-12T19:20:37;20.20;99.90
20885;DHT22;10602;48.000;9.654;2023-09-12T19:26:22;19.90;99.90
20885;DHT22;10602;48.000;9.654;2023-09-12T19:29:28;19.70;99.90
20885;DHT22;10602;48.000;9.654;2023-09-12T19:52:41;19.20;99.90
20885;DHT22;10602;48.000;9.654;2023-09-12T19:55:11;19.20;99.90
20885;DHT22;10602;48.000;9.654;2023-09-12T19:57:38;19.20;1.00
20885;DHT22;10602;48.000;9.654;2023-09-12T20:00:11;19.20;1.00
20885;DHT22;10602;48.000;9.654;2023-09-12T20:02:42;19.20;1.00
20885;DHT22;10602;48.000;9.654;2023-09-12T20:05:18;19.10;1.00
20885;DHT22;10602;48.000;9.654;2023-09-12T20:07:54;19.10;1.00
20885;DHT22;10602;48.000;9.654;2023-09-12T20:10:24;19.10;1.00
20885;DHT22;10602;48.000;9.654;2023-09-12T20:12:55;19.10;1.00
20885;DHT22;10602;48.000;9.654;2023-09-12T20:15:28;19.00;1.00
20885;DHT22;10602;48.000;9.654;2023-09-12T20:18:07;19.10;99.90
20885;DHT22;10602;48.000;9.654;2023-09-12T20:20:35;19.00;1.00
20885;DHT22;10602;48.000;9.654;2023-09-12T20:23:08;18.80;1.00
20885;DHT22;10602;48.000;9.654;2023-09-12T20:25:43;18.70;1.00
20885;DHT22;10602;48.000;9.654;2023-09-12T20:28:24;18.60;1.00
20885;DHT22;10602;48.000;9.654;2023-09-12T20:30:56;18.60;1.00
20885;DHT22;10602;48.000;9.654;2023-09-12T20:33:29;18.50;1.00
20885;DHT22;10602;48.000;9.654;2023-09-12T20:35:59;18.50;1.00
20885;DHT22;10602;48.000;9.654;2023-09-12T20:38:33;18.50;1.00
20885;DHT22;10602;48.000;9.654;2023-09-12T20:41:07;18.60;1.00
20885;DHT22;10602;48.000;9.654;2023-09-12T20:43:44;18.70;1.00
20885;DHT22;10602;48.000;9.654;2023-09-12T20:49:28;18.70;1.00
20885;DHT22;10602;48.000;9.654;2023-09-12T20:51:58;18.70;99.90
20885;DHT22;10602;48.000;9.654;2023-09-12T20:54:31;18.80;99.90
20885;DHT22;10602;48.000;9.654;2023-09-12T20:57:24;18.70;99.90
20885;DHT22;10602;48.000;9.654;2023-09-12T20:59:57;18.70;99.90
20885;DHT22;10602;48.000;9.654;2023-09-12T21:02:34;18.70;99.90
20885;DHT22;10602;48.000;9.654;2023-09-12T21:05:01;18.70;99.90
20885;DHT22;10602;48.000;9.654;2023-09-12T21:07:31;18.60;99.90
20885;DHT22;10602;48.000;9.654;2023-09-12T21:10:01;18.60;99.90
20885;DHT22;10602;48.000;9.654;2023-09-12T21:12:30;18.60;1.00
20885;DHT22;10602;48.000;9.654;2023-09-12T21:15:01;18.50;99.90
20885;DHT22;10602;48.000;9.654;2023-09-12T21:17:34;18.30;99.90
20885;DHT22;10602;48.000;9.654;2023-09-12T21:20:06;18.20;1.00
20885;DHT22;10602;48.000;9.654;2023-09-12T21:22:38;18.10;1.00
20885;DHT22;10602;48.000;9.654;2023-09-12T21:30:25;18.00;1.00
20885;DHT22;10602;48.000;9.654;2023-09-12T21:33:20;18.00;99.90
20885;DHT22;10602;48.000;9.654;2023-09-12T21:35:54;17.90;1.00
20885;DHT22;10602;48.000;9.654;2023-09-12T21:38:28;17.80;1.00
20885;DHT22;10602;48.000;9.654;2023-09-12T21:41:10;17.70;1.00
20885;DHT22;10602;48.000;9.654;2023-09-12T21:43:41;17.70;1.00
20885;DHT22;10602;48.000;9.654;2023-09-12T21:49:07;17.50;7.40
20885;DHT22;10602;48.000;9.654;2023-09-12T21:52:00;17.50;16.20
20885;DHT22;10602;48.000;9.654;2023-09-12T21:54:30;17.40;10.50
20885;DHT22;10602;48.000;9.654;2023-09-12T21:59:42;17.50;22.60
20885;DHT22;10602;48.000;9.654;2023-09-12T22:02:12;17.40;25.10
20885;DHT22;10602;48.000;9.654;2023-09-12T22:04:44;17.30;24.90
20885;DHT22;10602;48.000;9.654;2023-09-12T22:07:35;17.30;26.00
20885;DHT22;10602;48.000;9.654;2023-09-12T22:10:08;17.30;32.40
20885;DHT22;10602;48.000;9.654;2023-09-12T22:12:39;17.30;38.10
20885;DHT22;10602;48.000;9.654;2023-09-12T22:15:13;17.30;42.20
20885;DHT22;10602;48.000;9.654;2023-09-12T22:17:44;17.40;38.10
20885;DHT22;10602;48.000;9.654;2023-09-12T22:20:14;17.50;31.10
20885;DHT22;10602;48.000;9.654;2023-09-12T22:22:48;17.50;33.80
20885;DHT22;10602;48.000;9.654;2023-09-12T22:25:19;17.60;32.10
20885;DHT22;10602;48.000;9.654;2023-09-12T22:27:54;17.60;26.70
20885;DHT22;10602;48.000;9.654;2023-09-12T22:30:28;17.60;24.20
20885;DHT22;10602;48.000;9.654;2023-09-12T22:33:01;17.60;27.20
20885;DHT22;10602;48.000;9.654;2023-09-12T22:35:31;17.70;28.30
20885;DHT22;10602;48.000;9.654;2023-09-12T22:38:05;17.70;36.20
20885;DHT22;10602;48.000;9.654;2023-09-12T22:40:35;17.70;43.90
20885;DHT22;10602;48.000;9.654;2023-09-12T22:43:12;17.70;49.20
20885;DHT22;10602;48.000;9.654;2023-09-12T23:02:16;17.60;95.10
20885;DHT22;10602;48.000;9.654;2023-09-12T23:05:08;17.60;96.80
20885;DHT22;10602;48.000;9.654;2023-09-12T23:11:07;17.50;99.90
20885;DHT22;10602;48.000;9.654;2023-09-12T23:20:30;17.60;99.90
20885;DHT22;10602;48.000;9.654;2023-09-12T23:41:19;17.30;99.90
20885;DHT22;10602;48.000;9.654;2023-09-12T23:43:56;17.60;99.90
20885;DHT22;10602;48.000;9.654;2023-09-12T23:59:42;18.90;1.00
